Time;durP1;ratioP1;P1;durP2;ratioP2;P2;SDS_P1;SDS_P2;PMS_P1;PMS_P2;Temp;Humidity;BMP_temperature;BMP_pressure;BME280_temperature;BME280_humidity;BME280_pressure;Samples;Min_cycle;Max_cycle;Signal;HPM_P1;HPM_P2
2021/10/31 00:00:40;;;;;;;5.68;3.88;;;;;;;;;;5032147;28;20067;-57
2021/10/31 00:03:06;;;;;;;6.78;4.53;;;;;;;;;;5042565;28;20029;-57
2021/10/31 00:05:32;;;;;;;6.40;4.78;;;;;;;;;;5051775;28;20035;-57
2021/10/31 00:07:58;;;;;;;9.23;4.25;;;;;;;;;;5051147;28;20086;-57
2021/10/31 00:10:24;;;;;;;6.72;4.00;;;;;;;;;;5051653;28;20029;-57
2021/10/31 00:12:50;;;;;;;4.65;3.58;;;;;;;;;;5052318;28;20051;-57
2021/10/31 00:15:16;;;;;;;5.63;3.83;;;;;;;;;;5051884;28;20039;-57
2021/10/31 00:17:42;;;;;;;4.47;3.45;;;;;;;;;;5051203;28;20053;-58
2021/10/31 00:20:09;;;;;;;5.78;3.40;;;;;;;;;;5051608;28;20032;-57
2021/10/31 00:22:35;;;;;;;3.58;2.35;;;;;;;;;;5052084;28;20080;-57
2021/10/31 00:25:01;;;;;;;5.63;3.53;;;;;;;;;;5051421;28;20056;-58
2021/10/31 00:27:27;;;;;;;5.90;2.92;;;;;;;;;;5050935;28;20425;-57
2021/10/31 00:29:53;;;;;;;4.28;2.35;;;;;;;;;;5051669;28;20025;-57
2021/10/31 00:32:19;;;;;;;4.60;2.70;;;;;;;;;;5051556;28;20025;-58
2021/10/31 00:34:45;;;;;;;4.15;2.25;;;;;;;;;;5051379;28;20025;-57
2021/10/31 00:37:11;;;;;;;3.95;2.63;;;;;;;;;;5050694;28;20035;-57
2021/10/31 00:39:37;;;;;;;3.22;2.28;;;;;;;;;;5051364;28;20390;-57
2021/10/31 00:42:03;;;;;;;4.05;2.75;;;;;;;;;;5051397;28;20033;-58
2021/10/31 00:44:29;;;;;;;4.03;2.78;;;;;;;;;;5051484;28;20036;-58
2021/10/31 00:46:55;;;;;;;3.13;2.08;;;;;;;;;;5050916;28;20021;-58
2021/10/31 00:49:21;;;;;;;9.75;5.65;;;;;;;;;;5051356;28;20033;-58
2021/10/31 00:51:47;;;;;;;14.70;8.60;;;;;;;;;;5051378;28;20104;-57
2021/10/31 00:54:13;;;;;;;11.93;6.40;;;;;;;;;;5051139;28;20055;-57
2021/10/31 00:56:39;;;;;;;6.75;4.25;;;;;;;;;;5050911;28;20025;-58
2021/10/31 00:59:05;;;;;;;5.80;3.20;;;;;;;;;;5054039;28;20036;-57
2021/10/31 01:01:32;;;;;;;4.90;3.47;;;;;;;;;;5055050;28;20426;-57
2021/10/31 01:03:58;;;;;;;4.65;2.35;;;;;;;;;;5037090;28;20034;-57
2021/10/31 01:06:24;;;;;;;2.97;1.63;;;;;;;;;;5033874;28;20033;-57
2021/10/31 01:08:52;;;;;;;3.35;1.98;;;;;;;;;;5034833;28;20463;-57
2021/10/31 01:11:21;;;;;;;2.97;2.13;;;;;;;;;;5034994;28;20082;-57
2021/10/31 01:13:53;;;;;;;3.03;1.73;;;;;;;;;;5034765;28;20101;-57
2021/10/31 01:16:26;;;;;;;2.67;1.73;;;;;;;;;;5034361;28;20037;-58
2021/10/31 01:18:52;;;;;;;2.22;1.63;;;;;;;;;;5034741;28;20344;-57
2021/10/31 01:21:28;;;;;;;4.38;2.05;;;;;;;;;;5034198;28;20029;-57
2021/10/31 01:23:53;;;;;;;2.42;1.30;;;;;;;;;;5034747;28;20036;-57
2021/10/31 01:26:38;;;;;;;2.50;1.50;;;;;;;;;;5033944;28;20037;-58
2021/10/31 01:29:09;;;;;;;2.83;1.60;;;;;;;;;;5034475;28;20041;-57
2021/10/31 01:31:54;;;;;;;4.40;2.25;;;;;;;;;;5034335;28;20036;-57
2021/10/31 01:34:30;;;;;;;2.25;1.40;;;;;;;;;;5034446;28;20426;-57
2021/10/31 01:37:02;;;;;;;2.65;1.60;;;;;;;;;;5033484;28;20049;-57
2021/10/31 01:39:32;;;;;;;2.17;1.35;;;;;;;;;;5034182;28;20036;-57
2021/10/31 01:42:17;;;;;;;2.67;1.83;;;;;;;;;;5034209;28;20063;-58
2021/10/31 01:45:03;;;;;;;2.97;1.65;;;;;;;;;;5034291;28;20356;-57
2021/10/31 01:47:29;;;;;;;4.28;2.08;;;;;;;;;;5033493;28;20044;-61
2021/10/31 01:50:15;;;;;;;3.72;2.33;;;;;;;;;;5034147;28;20021;-57
2021/10/31 01:52:46;;;;;;;3.05;2.28;;;;;;;;;;5033814;28;20042;-58
2021/10/31 01:55:14;;;;;;;3.75;2.03;;;;;;;;;;5034196;28;20036;-57
2021/10/31 01:57:43;;;;;;;3.03;2.10;;;;;;;;;;5033349;28;20123;-57
2021/10/31 02:00:10;;;;;;;3.13;2.13;;;;;;;;;;5033881;28;20033;-58
2021/10/31 02:02:40;;;;;;;2.95;2.03;;;;;;;;;;5040193;28;20080;-57
2021/10/31 02:05:07;;;;;;;2.50;1.95;;;;;;;;;;5053485;28;20040;-57
2021/10/31 02:07:35;;;;;;;2.55;1.88;;;;;;;;;;5052849;28;20544;-56
2021/10/31 02:10:01;;;;;;;3.67;2.67;;;;;;;;;;5053433;28;20090;-57
2021/10/31 02:12:27;;;;;;;3.97;1.98;;;;;;;;;;5053626;28;20529;-57
2021/10/31 02:14:54;;;;;;;2.55;2.15;;;;;;;;;;5053402;28;20025;-57
2021/10/31 02:17:20;;;;;;;4.90;2.13;;;;;;;;;;5052563;28;20029;-57
2021/10/31 02:19:47;;;;;;;3.65;2.30;;;;;;;;;;5053655;28;20029;-57
2021/10/31 02:22:20;;;;;;;5.65;2.55;;;;;;;;;;5053241;28;20037;-57
2021/10/31 02:24:47;;;;;;;3.80;2.15;;;;;;;;;;5053799;28;20035;-57
2021/10/31 02:27:14;;;;;;;3.20;1.88;;;;;;;;;;5084924;28;20426;-57
2021/10/31 02:29:59;;;;;;;3.80;2.45;;;;;;;;;;5053163;28;20097;-57
2021/10/31 02:32:26;;;;;;;3.88;2.03;;;;;;;;;;5053419;28;20443;-57
2021/10/31 02:34:56;;;;;;;4.93;2.50;;;;;;;;;;5053219;28;20072;-57
2021/10/31 02:37:23;;;;;;;3.38;2.10;;;;;;;;;;5052238;28;20045;-57
2021/10/31 02:39:49;;;;;;;3.60;2.50;;;;;;;;;;5053142;28;20029;-57
2021/10/31 02:42:15;;;;;;;8.10;4.32;;;;;;;;;;5052779;28;20372;-57
2021/10/31 02:44:42;;;;;;;11.07;6.68;;;;;;;;;;5053179;28;20025;-57
2021/10/31 02:47:11;;;;;;;8.40;5.88;;;;;;;;;;5052316;28;20186;-57
2021/10/31 02:49:37;;;;;;;10.98;5.53;;;;;;;;;;5052852;28;20029;-57
2021/10/31 02:52:03;;;;;;;6.93;4.72;;;;;;;;;;5052813;28;20029;-57
2021/10/31 02:54:32;;;;;;;6.28;4.00;;;;;;;;;;5052688;28;20070;-58
2021/10/31 02:57:00;;;;;;;9.23;3.50;;;;;;;;;;5052325;28;20096;-57
2021/10/31 02:59:35;;;;;;;6.10;3.40;;;;;;;;;;5052338;28;20486;-57
2021/10/31 03:02:01;;;;;;;3.90;2.63;;;;;;;;;;5052649;28;20102;-57
2021/10/31 03:04:28;;;;;;;4.00;1.73;;;;;;;;;;5052738;28;20036;-57
2021/10/31 03:06:57;;;;;;;2.45;1.50;;;;;;;;;;5051861;28;20108;-57
2021/10/31 03:09:23;;;;;;;3.15;1.75;;;;;;;;;;5052700;28;20021;-56
2021/10/31 03:11:49;;;;;;;4.45;2.30;;;;;;;;;;5052402;28;20051;-57
2021/10/31 03:14:15;;;;;;;3.13;1.80;;;;;;;;;;5052474;28;20477;-58
2021/10/31 03:16:41;;;;;;;2.30;1.48;;;;;;;;;;5051735;28;20123;-57
2021/10/31 03:19:07;;;;;;;2.42;1.20;;;;;;;;;;5052467;28;20115;-57
2021/10/31 03:21:33;;;;;;;2.63;1.45;;;;;;;;;;5051676;28;20500;-57
2021/10/31 03:23:59;;;;;;;2.85;1.55;;;;;;;;;;5052115;28;20037;-57
2021/10/31 03:26:25;;;;;;;2.53;1.73;;;;;;;;;;5051240;28;20025;-56
2021/10/31 03:28:51;;;;;;;3.15;1.50;;;;;;;;;;5051941;28;20071;-56
2021/10/31 03:31:17;;;;;;;3.42;1.83;;;;;;;;;;5051967;28;20037;-57
2021/10/31 03:33:43;;;;;;;3.88;1.90;;;;;;;;;;5052252;28;20025;-57
2021/10/31 03:36:09;;;;;;;2.08;1.10;;;;;;;;;;5051772;28;20041;-58
2021/10/31 03:38:35;;;;;;;2.60;1.42;;;;;;;;;;5051844;28;20028;-57
2021/10/31 03:41:01;;;;;;;2.55;1.33;;;;;;;;;;5052127;28;20377;-57
2021/10/31 03:43:27;;;;;;;2.92;1.50;;;;;;;;;;5052109;28;20033;-57
2021/10/31 03:45:53;;;;;;;2.85;1.50;;;;;;;;;;5051986;28;20029;-57
2021/10/31 03:48:19;;;;;;;2.40;1.30;;;;;;;;;;5051650;28;20029;-57
2021/10/31 03:50:45;;;;;;;2.50;1.67;;;;;;;;;;5052102;28;20083;-57
2021/10/31 03:53:11;;;;;;;1.92;1.25;;;;;;;;;;5051669;28;20413;-57
2021/10/31 03:55:37;;;;;;;2.92;1.25;;;;;;;;;;5052070;28;20025;-57
2021/10/31 03:58:03;;;;;;;2.97;1.52;;;;;;;;;;5051338;28;20037;-58
2021/10/31 04:00:29;;;;;;;4.20;2.30;;;;;;;;;;5052045;28;20106;-57
2021/10/31 04:02:55;;;;;;;2.83;1.65;;;;;;;;;;5051614;28;20036;-57
2021/10/31 04:05:21;;;;;;;5.30;2.13;;;;;;;;;;5051870;28;20459;-57
2021/10/31 04:07:50;;;;;;;2.67;1.33;;;;;;;;;;5050940;28;20025;-57
2021/10/31 04:10:16;;;;;;;3.15;2.03;;;;;;;;;;5051868;28;20033;-58
2021/10/31 04:12:42;;;;;;;2.90;1.77;;;;;;;;;;5051866;28;20044;-57
2021/10/31 04:15:09;;;;;;;2.88;1.40;;;;;;;;;;5051687;28;20029;-57
2021/10/31 04:17:35;;;;;;;2.65;1.80;;;;;;;;;;5050941;28;20379;-58
2021/10/31 04:20:01;;;;;;;2.95;2.25;;;;;;;;;;5051772;28;20032;-57
2021/10/31 04:22:28;;;;;;;3.65;2.70;;;;;;;;;;5051338;28;20110;-57
2021/10/31 04:24:54;;;;;;;4.93;2.65;;;;;;;;;;5051719;28;20467;-57
2021/10/31 04:27:20;;;;;;;4.28;3.35;;;;;;;;;;5051136;28;20032;-57
2021/10/31 04:29:46;;;;;;;7.50;4.00;;;;;;;;;;5051575;28;20029;-57
2021/10/31 04:32:12;;;;;;;5.85;4.07;;;;;;;;;;5047305;28;20123;-58
2021/10/31 04:34:38;;;;;;;6.75;4.25;;;;;;;;;;5055318;28;20021;-57
2021/10/31 04:37:04;;;;;;;8.68;5.53;;;;;;;;;;5055010;28;20033;-57
2021/10/31 04:39:30;;;;;;;12.43;4.88;;;;;;;;;;5055595;28;20033;-57
2021/10/31 04:42:03;;;;;;;9.07;5.55;;;;;;;;;;5055136;28;20055;-57
2021/10/31 04:44:29;;;;;;;9.95;5.72;;;;;;;;;;5055301;28;20087;-57
2021/10/31 04:46:55;;;;;;;9.60;6.40;;;;;;;;;;5053084;28;20106;-57
2021/10/31 04:49:21;;;;;;;6.95;6.00;;;;;;;;;;5054922;28;20033;-57
2021/10/31 04:51:47;;;;;;;7.25;6.55;;;;;;;;;;5055107;28;20028;-57
2021/10/31 04:54:13;;;;;;;9.45;7.68;;;;;;;;;;5055373;28;20079;-58
2021/10/31 04:56:39;;;;;;;10.32;6.40;;;;;;;;;;5054222;28;20434;-58
2021/10/31 04:59:05;;;;;;;9.35;6.75;;;;;;;;;;5055204;28;20036;-57
2021/10/31 05:01:31;;;;;;;7.38;5.82;;;;;;;;;;5052422;28;20025;-57
2021/10/31 05:03:57;;;;;;;7.32;5.63;;;;;;;;;;5054581;28;20087;-58
2021/10/31 05:06:23;;;;;;;5.65;4.97;;;;;;;;;;5054118;28;20055;-57
2021/10/31 05:08:49;;;;;;;8.35;4.80;;;;;;;;;;5054984;28;20037;-57
2021/10/31 05:11:15;;;;;;;6.40;5.72;;;;;;;;;;5054793;28;20021;-57
2021/10/31 05:13:41;;;;;;;6.07;5.03;;;;;;;;;;5054686;28;20415;-57
2021/10/31 05:16:08;;;;;;;6.75;6.05;;;;;;;;;;5053087;28;20017;-57
2021/10/31 05:18:35;;;;;;;6.95;5.90;;;;;;;;;;5054363;28;20061;-56
2021/10/31 05:21:01;;;;;;;6.63;5.75;;;;;;;;;;5054614;28;20060;-57
2021/10/31 05:23:27;;;;;;;7.55;5.95;;;;;;;;;;5054485;28;20033;-57
2021/10/31 05:25:54;;;;;;;9.05;5.95;;;;;;;;;;5054550;28;20029;-57
2021/10/31 05:28:20;;;;;;;6.32;5.45;;;;;;;;;;5053703;28;20074;-54
2021/10/31 05:30:46;;;;;;;9.48;5.25;;;;;;;;;;5054068;28;20084;-57
2021/10/31 05:33:13;;;;;;;7.57;5.95;;;;;;;;;;5054152;28;20421;-57
2021/10/31 05:35:39;;;;;;;7.90;5.65;;;;;;;;;;5054314;28;20040;-58
2021/10/31 05:38:06;;;;;;;7.03;5.35;;;;;;;;;;5053697;28;20498;-55
2021/10/31 05:40:32;;;;;;;6.03;4.80;;;;;;;;;;5054440;28;20025;-57
2021/10/31 05:42:58;;;;;;;8.38;5.07;;;;;;;;;;5053815;28;20090;-58
2021/10/31 05:45:24;;;;;;;7.28;5.15;;;;;;;;;;5053314;28;20037;-57
2021/10/31 05:47:52;;;;;;;7.32;5.60;;;;;;;;;;5053089;28;20414;-57
2021/10/31 05:50:19;;;;;;;9.43;6.28;;;;;;;;;;5054348;28;20052;-57
2021/10/31 05:52:45;;;;;;;6.03;5.05;;;;;;;;;;5054233;28;20069;-57
2021/10/31 05:55:13;;;;;;;5.80;4.43;;;;;;;;;;5054173;28;20075;-57
2021/10/31 05:57:39;;;;;;;5.00;3.97;;;;;;;;;;5052950;28;20028;-57
2021/10/31 06:00:07;;;;;;;5.38;4.88;;;;;;;;;;5053683;28;20032;-57
2021/10/31 06:02:33;;;;;;;5.28;3.95;;;;;;;;;;5053398;28;20528;-57
2021/10/31 06:04:59;;;;;;;5.07;4.00;;;;;;;;;;5052785;28;20041;-57
2021/10/31 06:07:26;;;;;;;7.25;4.95;;;;;;;;;;5053134;28;20060;-57
2021/10/31 06:09:52;;;;;;;5.88;4.10;;;;;;;;;;5053843;28;20032;-57
2021/10/31 06:12:18;;;;;;;6.18;3.50;;;;;;;;;;5053517;28;20040;-56
2021/10/31 06:14:44;;;;;;;4.88;3.50;;;;;;;;;;5053180;28;20028;-57
2021/10/31 06:17:10;;;;;;;5.03;3.42;;;;;;;;;;5052815;28;20081;-57
2021/10/31 06:19:37;;;;;;;5.15;3.47;;;;;;;;;;5053641;28;20029;-58
2021/10/31 06:22:04;;;;;;;5.55;4.07;;;;;;;;;;5053704;28;20032;-57
2021/10/31 06:24:30;;;;;;;5.70;3.65;;;;;;;;;;5053300;28;20061;-56
2021/10/31 06:26:56;;;;;;;4.60;3.17;;;;;;;;;;5052748;28;20025;-57
2021/10/31 06:29:22;;;;;;;5.10;3.53;;;;;;;;;;5053426;28;20041;-57
2021/10/31 06:31:48;;;;;;;6.93;4.03;;;;;;;;;;5053535;28;20048;-57
2021/10/31 06:34:14;;;;;;;4.35;3.65;;;;;;;;;;5053348;28;20104;-57
2021/10/31 06:36:40;;;;;;;4.35;3.95;;;;;;;;;;5052656;28;20037;-57
2021/10/31 06:39:06;;;;;;;6.10;5.13;;;;;;;;;;5053207;28;20029;-57
2021/10/31 06:41:32;;;;;;;6.15;4.90;;;;;;;;;;5052797;28;20370;-57
2021/10/31 06:43:58;;;;;;;5.97;4.00;;;;;;;;;;5051923;28;20119;-57
2021/10/31 06:46:25;;;;;;;4.28;3.65;;;;;;;;;;5047408;28;20053;-57
2021/10/31 06:48:52;;;;;;;5.15;4.32;;;;;;;;;;5034671;28;20420;-58
2021/10/31 06:51:18;;;;;;;4.55;3.63;;;;;;;;;;5053094;28;20021;-57
2021/10/31 06:53:44;;;;;;;5.50;3.92;;;;;;;;;;5050359;28;20029;-57
2021/10/31 06:56:11;;;;;;;6.72;4.35;;;;;;;;;;5051244;28;20111;-58
2021/10/31 06:58:37;;;;;;;4.63;3.85;;;;;;;;;;5052168;28;20039;-57
2021/10/31 07:01:03;;;;;;;6.25;3.88;;;;;;;;;;5036832;28;20579;-57
2021/10/31 07:03:29;;;;;;;5.10;3.92;;;;;;;;;;5043531;28;20518;-57
2021/10/31 07:05:55;;;;;;;7.07;4.68;;;;;;;;;;5052769;28;20033;-57
2021/10/31 07:08:21;;;;;;;4.68;4.20;;;;;;;;;;5052100;28;20035;-57
2021/10/31 07:10:47;;;;;;;6.40;5.20;;;;;;;;;;5052640;28;20032;-56
2021/10/31 07:13:13;;;;;;;9.77;5.18;;;;;;;;;;5052508;28;20037;-58
2021/10/31 07:15:39;;;;;;;5.95;5.35;;;;;;;;;;5051048;28;20028;-58
2021/10/31 07:18:06;;;;;;;4.30;3.90;;;;;;;;;;5057731;28;20111;-57
2021/10/31 07:20:32;;;;;;;8.82;4.97;;;;;;;;;;5055264;28;20483;-57
2021/10/31 07:22:58;;;;;;;6.07;5.45;;;;;;;;;;5065776;28;20120;-57
2021/10/31 07:25:25;;;;;;;6.78;6.07;;;;;;;;;;5052272;28;20029;-58
2021/10/31 07:27:52;;;;;;;8.18;6.30;;;;;;;;;;5051521;28;20461;-57
2021/10/31 07:30:18;;;;;;;6.43;5.82;;;;;;;;;;5052203;28;20020;-58
2021/10/31 07:32:44;;;;;;;8.32;5.65;;;;;;;;;;5051359;28;20067;-57
2021/10/31 07:35:10;;;;;;;6.25;5.55;;;;;;;;;;5052203;28;20406;-58
2021/10/31 07:37:36;;;;;;;9.13;7.10;;;;;;;;;;5034025;28;20030;-58
2021/10/31 07:40:05;;;;;;;8.07;6.22;;;;;;;;;;5032231;28;20033;-56
2021/10/31 07:42:31;;;;;;;8.18;6.15;;;;;;;;;;5031930;28;20112;-57
2021/10/31 07:44:58;;;;;;;7.70;6.95;;;;;;;;;;5045925;28;20053;-57
2021/10/31 07:47:24;;;;;;;5.97;5.07;;;;;;;;;;5056872;28;20422;-58
2021/10/31 07:49:51;;;;;;;8.20;6.05;;;;;;;;;;5057408;28;20378;-57
2021/10/31 07:52:18;;;;;;;8.77;6.57;;;;;;;;;;5053778;28;20033;-57
2021/10/31 07:54:44;;;;;;;8.57;6.15;;;;;;;;;;5051793;28;20021;-57
2021/10/31 07:57:10;;;;;;;7.60;6.28;;;;;;;;;;5051213;28;20097;-58
2021/10/31 07:59:36;;;;;;;8.10;6.10;;;;;;;;;;5051935;28;20033;-58
2021/10/31 08:02:04;;;;;;;6.18;5.18;;;;;;;;;;5047248;28;20033;-58
2021/10/31 08:04:30;;;;;;;8.40;5.28;;;;;;;;;;5037637;28;20029;-58
2021/10/31 08:06:56;;;;;;;6.35;4.65;;;;;;;;;;5052145;28;20025;-58
2021/10/31 08:09:22;;;;;;;5.32;4.60;;;;;;;;;;5055824;28;20025;-58
2021/10/31 08:11:48;;;;;;;8.25;5.20;;;;;;;;;;5056054;28;20075;-57
2021/10/31 08:14:15;;;;;;;5.18;4.32;;;;;;;;;;5055759;28;20029;-57
2021/10/31 08:16:41;;;;;;;5.70;4.43;;;;;;;;;;5055036;28;20028;-58
2021/10/31 08:19:08;;;;;;;7.68;5.53;;;;;;;;;;5055549;28;20434;-58
2021/10/31 08:21:34;;;;;;;5.57;4.82;;;;;;;;;;5055843;28;20025;-58
2021/10/31 08:24:00;;;;;;;7.63;5.25;;;;;;;;;;5055430;28;20039;-57
2021/10/31 08:26:26;;;;;;;5.97;4.78;;;;;;;;;;5055117;28;20061;-58
2021/10/31 08:28:53;;;;;;;5.72;4.43;;;;;;;;;;5055476;28;20061;-56
2021/10/31 08:31:31;;;;;;;6.90;5.28;;;;;;;;;;5055349;28;20078;-58
2021/10/31 08:33:59;;;;;;;4.18;3.47;;;;;;;;;;5055486;28;20412;-58
2021/10/31 08:36:26;;;;;;;4.82;4.32;;;;;;;;;;5054673;28;20481;-58
2021/10/31 08:38:52;;;;;;;5.70;4.30;;;;;;;;;;5055484;28;20029;-57
2021/10/31 08:41:22;;;;;;;6.07;4.30;;;;;;;;;;5055320;28;20438;-58
2021/10/31 08:43:49;;;;;;;27.90;11.67;;;;;;;;;;5055196;28;20474;-58
2021/10/31 08:46:16;;;;;;;10.23;7.53;;;;;;;;;;5054223;28;20260;-58
2021/10/31 08:48:42;;;;;;;11.80;7.35;;;;;;;;;;5055227;28;20108;-59
2021/10/31 08:51:08;;;;;;;7.05;5.65;;;;;;;;;;5055163;28;20032;-59
2021/10/31 08:53:34;;;;;;;9.77;6.57;;;;;;;;;;5055412;28;20028;-59
2021/10/31 08:56:01;;;;;;;5.65;4.97;;;;;;;;;;5055344;28;20510;-59
2021/10/31 08:58:27;;;;;;;6.15;5.07;;;;;;;;;;5054659;28;20082;-59
2021/10/31 09:00:53;;;;;;;8.50;6.22;;;;;;;;;;5054996;28;20033;-58
2021/10/31 09:03:20;;;;;;;6.38;5.50;;;;;;;;;;5052159;28;20033;-59
2021/10/31 09:05:46;;;;;;;6.15;5.00;;;;;;;;;;5054534;28;20099;-58
2021/10/31 09:08:12;;;;;;;5.28;4.72;;;;;;;;;;5054295;28;20466;-59
2021/10/31 09:10:38;;;;;;;6.30;5.18;;;;;;;;;;5055478;28;20124;-59
2021/10/31 09:13:05;;;;;;;6.55;5.85;;;;;;;;;;5054823;28;20039;-59
2021/10/31 09:15:31;;;;;;;5.97;4.63;;;;;;;;;;5054485;28;20037;-59
2021/10/31 09:17:58;;;;;;;7.32;5.22;;;;;;;;;;5053499;28;20379;-59
2021/10/31 09:20:25;;;;;;;7.55;6.05;;;;;;;;;;5054021;28;20082;-59
2021/10/31 09:22:53;;;;;;;5.95;5.30;;;;;;;;;;5054694;28;20124;-57
2021/10/31 09:25:19;;;;;;;5.32;4.40;;;;;;;;;;5054560;28;20049;-58
2021/10/31 09:27:45;;;;;;;4.75;4.05;;;;;;;;;;5052828;28;20029;-58
2021/10/31 09:30:11;;;;;;;4.93;4.28;;;;;;;;;;5053817;28;20112;-57
2021/10/31 09:32:40;;;;;;;5.43;3.92;;;;;;;;;;5054333;28;20407;-58
2021/10/31 09:35:06;;;;;;;4.95;3.67;;;;;;;;;;5052493;28;20451;-57
2021/10/31 09:37:34;;;;;;;4.13;3.58;;;;;;;;;;5053847;28;20028;-57
2021/10/31 09:40:02;;;;;;;4.22;3.10;;;;;;;;;;5054396;28;20037;-57
2021/10/31 09:42:28;;;;;;;4.28;3.17;;;;;;;;;;5054033;28;20039;-57
2021/10/31 09:44:54;;;;;;;3.42;3.08;;;;;;;;;;5054419;28;20031;-58
2021/10/31 09:47:21;;;;;;;5.53;3.42;;;;;;;;;;5053330;28;20029;-57
2021/10/31 09:49:47;;;;;;;5.00;3.35;;;;;;;;;;5054358;28;20544;-57
2021/10/31 09:52:13;;;;;;;4.07;2.80;;;;;;;;;;5053872;28;20056;-57
2021/10/31 09:54:39;;;;;;;4.38;2.85;;;;;;;;;;5054175;28;20025;-57
2021/10/31 09:57:05;;;;;;;3.70;2.60;;;;;;;;;;5052105;28;20090;-57
2021/10/31 09:59:38;;;;;;;4.57;3.17;;;;;;;;;;5055129;28;20113;-57
2021/10/31 10:04:32;;;;;;;4.13;3.28;;;;;;;;;;5068770;28;20115;-57
2021/10/31 10:06:59;;;;;;;5.00;2.47;;;;;;;;;;5072983;28;20524;-57
2021/10/31 10:09:26;;;;;;;5.45;2.78;;;;;;;;;;5073868;28;20024;-57
2021/10/31 10:11:52;;;;;;;3.83;2.55;;;;;;;;;;5073675;28;20466;-58
2021/10/31 10:14:25;;;;;;;4.72;2.85;;;;;;;;;;5074166;28;20024;-58
2021/10/31 10:16:58;;;;;;;2.97;2.55;;;;;;;;;;5056315;28;20025;-58
2021/10/31 10:19:29;;;;;;;3.35;2.30;;;;;;;;;;5053452;28;20032;-58
2021/10/31 10:22:03;;;;;;;2.95;2.33;;;;;;;;;;5053568;28;20375;-58
2021/10/31 10:24:30;;;;;;;3.38;2.75;;;;;;;;;;5065864;28;20040;-58
2021/10/31 10:26:58;;;;;;;4.28;2.78;;;;;;;;;;5052594;28;20029;-58
2021/10/31 10:29:27;;;;;;;3.65;2.55;;;;;;;;;;5053428;28;20021;-57
2021/10/31 10:31:55;;;;;;;3.63;2.90;;;;;;;;;;5050832;28;20028;-58
2021/10/31 10:34:46;;;;;;;5.13;2.70;;;;;;;;;;5053283;28;20104;-58
2021/10/31 10:37:14;;;;;;;5.75;3.22;;;;;;;;;;5050486;28;20036;-58
2021/10/31 10:39:40;;;;;;;6.80;3.70;;;;;;;;;;5051809;28;20090;-57
2021/10/31 10:42:07;;;;;;;7.20;4.00;;;;;;;;;;5052030;28;20028;-58
2021/10/31 10:44:35;;;;;;;6.60;4.20;;;;;;;;;;5050777;28;20037;-58
2021/10/31 10:47:04;;;;;;;4.50;3.53;;;;;;;;;;5052097;28;20131;-58
2021/10/31 10:49:32;;;;;;;5.63;3.58;;;;;;;;;;5052819;28;20028;-58
2021/10/31 10:52:06;;;;;;;4.93;2.80;;;;;;;;;;5052590;28;20366;-58
2021/10/31 10:54:34;;;;;;;3.65;2.42;;;;;;;;;;5052768;28;20033;-58
2021/10/31 10:57:05;;;;;;;3.42;2.75;;;;;;;;;;5051956;28;20112;-58
2021/10/31 10:59:31;;;;;;;3.25;2.40;;;;;;;;;;5052967;28;20112;-58
2021/10/31 11:02:10;;;;;;;4.55;2.95;;;;;;;;;;5052780;28;20139;-58
2021/10/31 11:04:37;;;;;;;3.22;2.15;;;;;;;;;;5052352;28;20053;-58
2021/10/31 11:07:04;;;;;;;3.10;2.10;;;;;;;;;;5052132;28;20025;-59
2021/10/31 11:09:36;;;;;;;13.90;3.25;;;;;;;;;;5052604;28;20075;-58
2021/10/31 11:12:20;;;;;;;3.58;2.25;;;;;;;;;;5052952;28;20029;-58
2021/10/31 11:14:48;;;;;;;3.40;2.15;;;;;;;;;;5052696;28;20096;-57
2021/10/31 11:17:14;;;;;;;3.10;1.85;;;;;;;;;;5051511;28;20031;-58
2021/10/31 11:19:41;;;;;;;3.30;2.20;;;;;;;;;;5052285;28;20021;-58
2021/10/31 11:22:07;;;;;;;2.83;1.73;;;;;;;;;;5052367;28;20029;-58
2021/10/31 11:24:33;;;;;;;2.78;1.58;;;;;;;;;;5052335;28;20075;-58
2021/10/31 11:27:00;;;;;;;2.92;2.05;;;;;;;;;;5051699;28;20104;-58
2021/10/31 11:29:29;;;;;;;4.65;2.53;;;;;;;;;;5052717;28;20096;-58
2021/10/31 11:31:55;;;;;;;3.45;2.65;;;;;;;;;;5052449;28;20029;-58
2021/10/31 11:34:22;;;;;;;2.58;1.80;;;;;;;;;;5052613;28;20075;-58
2021/10/31 11:36:48;;;;;;;3.85;2.55;;;;;;;;;;5051985;28;20033;-58
2021/10/31 11:39:14;;;;;;;2.72;1.73;;;;;;;;;;5051883;28;20025;-58
2021/10/31 11:41:40;;;;;;;2.35;1.55;;;;;;;;;;5051458;28;20029;-58
2021/10/31 11:44:06;;;;;;;1.70;1.38;;;;;;;;;;5047976;28;20025;-59
2021/10/31 11:46:39;;;;;;;2.60;1.65;;;;;;;;;;5051875;28;20036;-58
2021/10/31 11:49:05;;;;;;;2.40;1.48;;;;;;;;;;5052209;28;20025;-58
2021/10/31 11:51:39;;;;;;;3.08;1.98;;;;;;;;;;5051928;28;20083;-58
2021/10/31 11:54:08;;;;;;;5.93;1.80;;;;;;;;;;5051811;28;20510;-58
2021/10/31 11:56:43;;;;;;;2.63;1.25;;;;;;;;;;5051060;28;20057;-58
2021/10/31 11:59:10;;;;;;;3.17;1.75;;;;;;;;;;5052243;28;20104;-58
2021/10/31 12:01:38;;;;;;;3.35;1.67;;;;;;;;;;5051997;28;20037;-58
2021/10/31 12:04:06;;;;;;;3.50;1.92;;;;;;;;;;5051696;28;20453;-58
2021/10/31 12:06:32;;;;;;;2.08;1.35;;;;;;;;;;5050956;28;20071;-58
2021/10/31 12:09:03;;;;;;;2.80;2.00;;;;;;;;;;5051525;28;20033;-58
2021/10/31 12:11:28;;;;;;;;;;;;;;;;;;5052229;28;20105;-58
2021/10/31 12:13:55;;;;;;;3.13;2.05;;;;;;;;;;5051974;28;19959;-58
2021/10/31 12:16:21;;;;;;;4.38;1.73;;;;;;;;;;5051033;28;20090;-58
2021/10/31 12:19:07;;;;;;;3.92;1.73;;;;;;;;;;5051683;28;20382;-58
2021/10/31 12:21:34;;;;;;;2.95;1.80;;;;;;;;;;5050376;28;20494;-58
2021/10/31 12:24:02;;;;;;;3.13;1.90;;;;;;;;;;5051795;28;20378;-58
2021/10/31 12:26:32;;;;;;;2.88;1.70;;;;;;;;;;5051215;28;20129;-59
2021/10/31 12:29:17;;;;;;;2.63;1.35;;;;;;;;;;5051684;28;20504;-58
2021/10/31 12:31:58;;;;;;;2.65;1.77;;;;;;;;;;5051648;28;20158;-58
2021/10/31 12:34:54;;;;;;;3.17;2.05;;;;;;;;;;5051233;28;20025;-58
2021/10/31 12:37:26;;;;;;;2.67;1.85;;;;;;;;;;5041904;28;20041;-58
2021/10/31 12:39:59;;;;;;;2.25;1.30;;;;;;;;;;5051487;28;20029;-58
2021/10/31 12:42:32;;;;;;;3.28;1.60;;;;;;;;;;5049620;28;20123;-58
2021/10/31 12:45:02;;;;;;;4.35;1.73;;;;;;;;;;5051275;28;20422;-58
2021/10/31 12:47:42;;;;;;;3.10;1.73;;;;;;;;;;5051014;28;20434;-58
2021/10/31 12:50:10;;;;;;;3.08;2.03;;;;;;;;;;5051631;28;20125;-58
2021/10/31 12:52:36;;;;;;;4.53;1.75;;;;;;;;;;5051690;28;20043;-58
2021/10/31 12:55:07;;;;;;;3.97;1.92;;;;;;;;;;5055013;28;20056;-58
2021/10/31 12:57:32;;;;;;;;;;;;;;;;;;5054636;28;20021;-58
2021/10/31 13:00:02;;;;;;;2.35;1.70;;;;;;;;;;5055133;28;19958;-58
2021/10/31 13:02:29;;;;;;;2.58;1.50;;;;;;;;;;5052771;28;20041;-58
2021/10/31 13:04:55;;;;;;;2.75;1.52;;;;;;;;;;5054738;28;20048;-59
2021/10/31 13:07:25;;;;;;;2.60;1.30;;;;;;;;;;5053758;28;20013;-59
2021/10/31 13:09:52;;;;;;;1.38;0.70;;;;;;;;;;5054932;28;20028;-59
2021/10/31 13:12:22;;;;;;;1.42;0.93;;;;;;;;;;5054875;28;20033;-59
2021/10/31 13:14:48;;;;;;;2.53;1.25;;;;;;;;;;5054545;28;20108;-59
2021/10/31 13:17:15;;;;;;;1.88;1.00;;;;;;;;;;5052606;28;20351;-59
2021/10/31 13:19:41;;;;;;;2.70;1.17;;;;;;;;;;5053263;28;20024;-59
2021/10/31 13:22:19;;;;;;;1.85;1.10;;;;;;;;;;5053768;28;20470;-59
2021/10/31 13:24:47;;;;;;;1.40;0.98;;;;;;;;;;5054591;28;20422;-59
2021/10/31 13:27:23;;;;;;;2.00;1.02;;;;;;;;;;5053771;28;20025;-59
2021/10/31 13:29:50;;;;;;;1.83;1.02;;;;;;;;;;5053776;28;20370;-59
2021/10/31 13:32:17;;;;;;;2.13;1.13;;;;;;;;;;5054204;28;20467;-59
2021/10/31 13:34:44;;;;;;;2.30;1.27;;;;;;;;;;5051273;28;20032;-59
2021/10/31 13:37:11;;;;;;;2.53;1.33;;;;;;;;;;5053211;28;20075;-60
2021/10/31 13:39:37;;;;;;;2.35;1.25;;;;;;;;;;5054306;28;20025;-59
2021/10/31 13:42:05;;;;;;;2.03;1.25;;;;;;;;;;5053814;28;20063;-59
2021/10/31 13:44:31;;;;;;;3.97;1.05;;;;;;;;;;5052266;28;20048;-59
2021/10/31 13:47:00;;;;;;;2.15;1.02;;;;;;;;;;5051846;28;20099;-59
2021/10/31 13:49:26;;;;;;;2.10;1.13;;;;;;;;;;5053083;28;20061;-59
2021/10/31 13:51:52;;;;;;;2.33;0.90;;;;;;;;;;5054092;28;20049;-59
2021/10/31 13:54:19;;;;;;;1.50;0.80;;;;;;;;;;5053894;28;20100;-59
2021/10/31 13:56:46;;;;;;;2.35;1.20;;;;;;;;;;5053320;28;20524;-59
2021/10/31 13:59:14;;;;;;;3.60;1.13;;;;;;;;;;5053936;28;20083;-59
2021/10/31 14:01:41;;;;;;;4.10;1.30;;;;;;;;;;5053725;28;20139;-59
2021/10/31 14:04:28;;;;;;;2.10;1.15;;;;;;;;;;5053493;28;20036;-59
2021/10/31 14:07:01;;;;;;;3.67;1.08;;;;;;;;;;5053272;28;20112;-59
2021/10/31 14:09:27;;;;;;;1.73;0.90;;;;;;;;;;5053580;28;20367;-59
2021/10/31 14:11:53;;;;;;;1.75;1.05;;;;;;;;;;5053692;28;20021;-59
2021/10/31 14:14:31;;;;;;;2.17;1.23;;;;;;;;;;5053882;28;20383;-59
2021/10/31 14:17:07;;;;;;;1.88;1.13;;;;;;;;;;5053132;28;20352;-59
2021/10/31 14:19:33;;;;;;;1.60;0.80;;;;;;;;;;5053536;28;20075;-60
2021/10/31 14:22:02;;;;;;;1.88;0.85;;;;;;;;;;5053450;28;20029;-59
2021/10/31 14:24:29;;;;;;;2.05;1.25;;;;;;;;;;5052943;28;20125;-60
2021/10/31 14:26:55;;;;;;;2.17;1.02;;;;;;;;;;5052840;28;20422;-58
2021/10/31 14:29:22;;;;;;;2.58;1.40;;;;;;;;;;5053479;28;20036;-59
2021/10/31 14:31:50;;;;;;;2.28;1.02;;;;;;;;;;5053482;28;20550;-59
2021/10/31 14:34:16;;;;;;;2.25;1.10;;;;;;;;;;5053258;28;20111;-59
2021/10/31 14:36:42;;;;;;;2.63;1.25;;;;;;;;;;5052868;28;20378;-59
2021/10/31 14:39:10;;;;;;;4.13;1.52;;;;;;;;;;5051502;28;20036;-59
2021/10/31 14:41:37;;;;;;;2.67;1.52;;;;;;;;;;5053159;28;20463;-59
2021/10/31 14:44:04;;;;;;;2.05;1.08;;;;;;;;;;5052768;28;20475;-59
2021/10/31 14:46:55;;;;;;;3.92;1.17;;;;;;;;;;5052590;28;20025;-59
2021/10/31 14:49:23;;;;;;;2.20;1.10;;;;;;;;;;5052984;28;20021;-59